Time;durP1;ratioP1;P1;durP2;ratioP2;P2;SDS_P1;SDS_P2;PMS_P1;PMS_P2;Temp;Humidity;BMP_temperature;BMP_pressure;BME280_temperature;BME280_humidity;BME280_pressure;Samples;Min_cycle;Max_cycle;Signal;HPM_P1;HPM_P2
2021/08/26 00:07:57;;;;;;;17.50;8.77;;;;;;;13.57;64.52;99902.81;5113318;28;20057;-72
2021/08/26 00:10:25;;;;;;;16.13;9.10;;;;;;;13.52;65.24;99902.34;5113385;28;20125;-72
2021/08/26 00:12:55;;;;;;;16.95;9.45;;;;;;;13.64;65.16;99904.06;5113493;28;20044;-72
2021/08/26 00:15:23;;;;;;;16.50;9.15;;;;;;;13.71;65.04;99902.59;5113173;28;20043;-72
2021/08/26 00:17:52;;;;;;;17.80;9.23;;;;;;;13.63;65.31;99898.81;5115175;28;20043;-72
2021/08/26 00:20:20;;;;;;;17.58;9.23;;;;;;;13.59;65.61;99887.47;5117240;28;20054;-74
2021/08/26 00:22:48;;;;;;;18.73;9.93;;;;;;;13.44;66.41;99883.31;5117328;28;20036;-75
2021/08/26 00:25:17;;;;;;;18.17;9.70;;;;;;;13.43;65.80;99885.16;5117053;28;20446;-75
2021/08/26 00:27:45;;;;;;;16.90;9.27;;;;;;;13.37;66.63;99887.44;5117470;28;20122;-74
2021/08/26 00:30:15;;;;;;;17.77;9.02;;;;;;;13.36;67.15;99891.09;5117271;28;20092;-75
2021/08/26 00:32:43;;;;;;;16.52;8.95;;;;;;;13.42;67.10;99882.59;5117599;28;20044;-75
2021/08/26 00:35:12;;;;;;;15.98;8.70;;;;;;;13.47;66.74;99880.41;5116847;28;20067;-75
2021/08/26 00:37:40;;;;;;;17.48;9.50;;;;;;;13.43;67.16;99873.59;5117549;28;20085;-75
2021/08/26 00:40:09;;;;;;;18.63;9.63;;;;;;;13.36;67.59;99880.38;5116834;28;20100;-75
2021/08/26 00:42:38;;;;;;;16.10;8.98;;;;;;;13.39;67.67;99872.09;5117274;28;20075;-75
2021/08/26 00:45:07;;;;;;;17.33;9.68;;;;;;;13.21;68.88;99868.16;5116747;28;20071;-75
2021/08/26 00:47:42;;;;;;;18.88;9.63;;;;;;;13.06;70.30;99873.69;5116990;28;20036;-73
2021/08/26 00:50:12;;;;;;;17.45;9.73;;;;;;;12.98;70.90;99869.91;5116886;28;20427;-73
2021/08/26 00:52:40;;;;;;;17.83;9.85;;;;;;;12.91;71.65;99861.47;5116813;28;20404;-72
2021/08/26 00:55:10;;;;;;;18.17;9.57;;;;;;;12.85;72.16;99870.84;5116614;28;20066;-73
2021/08/26 00:57:39;;;;;;;18.63;9.63;;;;;;;12.81;72.46;99863.13;5116977;28;20552;-73
2021/08/26 01:00:10;;;;;;;17.58;9.85;;;;;;;12.77;72.92;99864.34;5116465;28;20047;-73
2021/08/26 01:02:49;;;;;;;18.45;10.00;;;;;;;12.70;73.79;99863.09;5116875;28;20377;-74
2021/08/26 01:05:23;;;;;;;20.55;10.02;;;;;;;12.73;73.41;99865.53;5116584;28;20035;-74
2021/08/26 01:07:54;;;;;;;;;;;;;;;12.81;72.55;99869.34;5117179;28;20096;-74
2021/08/26 01:10:25;;;;;;;18.95;9.90;;;;;;;12.85;72.12;99869.97;5116410;28;20000;-74
2021/08/26 01:12:56;;;;;;;22.23;11.52;;;;;;;12.90;71.97;99863.28;5116548;28;20040;-74
2021/08/26 01:15:26;;;;;;;19.95;10.30;;;;;;;12.93;71.89;99870.22;5116268;28;20265;-71
2021/08/26 01:17:56;;;;;;;23.73;11.15;;;;;;;12.86;72.12;99863.66;5098298;28;20100;-72
2021/08/26 01:20:25;;;;;;;21.00;10.70;;;;;;;12.77;72.15;99867.03;5116045;28;20429;-72
2021/08/26 01:22:54;;;;;;;20.23;10.35;;;;;;;12.70;72.73;99868.44;5116573;28;20123;-72
2021/08/26 01:25:26;;;;;;;20.17;10.70;;;;;;;12.64;73.00;99855.53;5115828;28;20042;-71
2021/08/26 01:27:59;;;;;;;20.17;10.40;;;;;;;12.65;73.36;99857.25;5116685;28;20043;-71
2021/08/26 01:30:30;;;;;;;21.52;10.93;;;;;;;12.69;73.23;99861.41;5115954;28;20515;-70
2021/08/26 01:33:02;;;;;;;20.10;10.23;;;;;;;12.71;73.36;99856.78;5116166;28;20039;-71
2021/08/26 01:35:31;;;;;;;21.52;11.05;;;;;;;12.69;73.08;99856.91;5116052;28;20531;-72
2021/08/26 01:37:59;;;;;;;20.33;10.02;;;;;;;12.55;73.81;99854.41;5097912;28;20051;-72
2021/08/26 01:40:35;;;;;;;21.90;11.00;;;;;;;12.48;74.49;99862.03;5115482;28;20059;-73
2021/08/26 01:43:07;;;;;;;20.92;9.90;;;;;;;12.38;75.22;99855.66;5116218;28;20039;-73
2021/08/26 01:45:37;;;;;;;;;;;;;;;12.37;75.41;99855.78;5116532;28;20047;-73
2021/08/26 01:48:06;;;;;;;18.92;10.25;;;;;;;12.41;74.82;99858.09;5115745;28;19926;-73
2021/08/26 01:50:34;;;;;;;20.58;10.43;;;;;;;12.41;74.49;99855.41;5115783;28;20044;-73
2021/08/26 01:53:02;;;;;;;18.70;11.00;;;;;;;12.38;74.37;99854.81;5115992;28;20047;-72
2021/08/26 01:55:31;;;;;;;18.73;10.65;;;;;;;12.39;74.25;99851.16;5115428;28;20047;-72
2021/08/26 01:58:00;;;;;;;21.63;10.55;;;;;;;12.44;73.73;99855.19;5116038;28;20039;-72
2021/08/26 02:00:29;;;;;;;19.45;10.90;;;;;;;12.48;73.27;99847.81;5115573;28;20051;-73
2021/08/26 02:02:57;;;;;;;18.20;10.30;;;;;;;12.45;72.73;99846.22;5115443;28;20047;-72
2021/08/26 02:05:26;;;;;;;19.05;10.45;;;;;;;12.40;73.10;99837.66;5115259;28;20118;-72
2021/08/26 02:07:56;;;;;;;19.02;10.23;;;;;;;12.39;73.26;99838.63;5115606;28;20126;-72
2021/08/26 02:10:26;;;;;;;20.52;10.20;;;;;;;12.36;73.42;99840.69;5115249;28;20044;-73
2021/08/26 02:12:54;;;;;;;17.80;10.32;;;;;;;12.29;74.22;99830.44;5115352;28;20040;-73
2021/08/26 02:15:23;;;;;;;22.20;11.05;;;;;;;12.31;74.60;99833.84;5115288;28;20373;-73
2021/08/26 02:17:55;;;;;;;19.77;10.77;;;;;;;12.28;75.35;99839.44;5115569;28;20044;-73
2021/08/26 02:20:24;;;;;;;21.85;10.82;;;;;;;12.30;75.22;99842.00;5115127;28;20385;-73
2021/08/26 02:22:52;;;;;;;18.73;10.48;;;;;;;12.29;75.08;99845.63;5115215;28;20051;-74
2021/08/26 02:25:20;;;;;;;19.90;10.65;;;;;;;12.23;75.58;99840.72;5114782;28;20048;-73
2021/08/26 02:27:48;;;;;;;21.92;10.73;;;;;;;12.21;75.47;99837.31;5115000;28;20043;-73
2021/08/26 02:30:17;;;;;;;20.58;10.45;;;;;;;12.20;75.54;99833.78;5114764;28;20097;-73
2021/08/26 02:32:47;;;;;;;19.17;10.38;;;;;;;12.15;75.83;99838.59;5096594;28;20067;-73
2021/08/26 02:35:17;;;;;;;17.65;10.07;;;;;;;12.16;75.61;99840.34;5114746;28;20089;-75
2021/08/26 02:37:45;;;;;;;19.15;10.32;;;;;;;12.18;75.84;99838.41;5114871;28;20051;-74
2021/08/26 02:40:14;;;;;;;18.80;10.30;;;;;;;12.15;75.90;99832.41;5095611;28;20052;-75
2021/08/26 02:42:45;;;;;;;19.98;10.13;;;;;;;12.13;76.13;99839.69;5114987;28;20441;-74
2021/08/26 02:45:13;;;;;;;19.50;10.05;;;;;;;12.13;76.25;99831.69;5114323;28;20480;-74
2021/08/26 02:47:42;;;;;;;20.98;10.27;;;;;;;12.17;76.19;99827.81;5114858;28;20071;-74
2021/08/26 02:50:10;;;;;;;22.52;10.65;;;;;;;12.14;76.32;99833.38;5114488;28;20519;-79
2021/08/26 02:52:42;;;;;;;19.88;10.32;;;;;;;12.16;76.45;99834.13;5114608;28;20067;-74
2021/08/26 02:55:11;;;;;;;19.85;10.65;;;;;;;12.18;76.51;99834.88;5114622;28;20478;-79
2021/08/26 02:57:39;;;;;;;20.48;10.07;;;;;;;12.21;76.28;99831.97;5114622;28;20050;-74
2021/08/26 03:00:09;;;;;;;20.52;9.60;;;;;;;12.21;76.18;99830.16;5114488;28;20048;-74
2021/08/26 03:02:37;;;;;;;19.33;9.93;;;;;;;12.21;76.08;99837.31;5096102;28;20043;-74
2021/08/26 03:05:08;;;;;;;17.73;9.63;;;;;;;12.15;76.42;99833.25;5113953;28;20044;-74
2021/08/26 03:07:36;;;;;;;19.67;10.18;;;;;;;12.13;77.04;99834.34;5114249;28;20032;-74
2021/08/26 03:10:06;;;;;;;18.65;9.75;;;;;;;12.04;77.20;99826.03;5114349;28;20389;-75
2021/08/26 03:12:35;;;;;;;18.60;10.15;;;;;;;12.01;77.55;99836.97;5113992;28;20096;-74
2021/08/26 03:15:04;;;;;;;18.00;9.70;;;;;;;12.02;77.43;99835.97;5114365;28;20100;-77
2021/08/26 03:17:34;;;;;;;21.58;9.88;;;;;;;12.06;77.39;99827.72;5113918;28;20439;-76
2021/08/26 03:20:04;;;;;;;18.63;9.30;;;;;;;12.04;77.58;99828.69;5114042;28;20043;-76
2021/08/26 03:22:32;;;;;;;17.15;9.57;;;;;;;12.00;77.68;99824.56;5113871;28;20054;-75
2021/08/26 03:25:01;;;;;;;19.70;9.15;;;;;;;12.09;77.47;99825.72;5114068;28;20040;-75
2021/08/26 03:27:30;;;;;;;17.98;9.82;;;;;;;12.08;77.13;99824.00;5113518;28;20044;-75
2021/08/26 03:30:00;;;;;;;18.60;9.80;;;;;;;12.00;77.55;99824.56;5095663;28;20492;-75
2021/08/26 03:32:28;;;;;;;16.48;9.50;;;;;;;12.03;77.76;99824.31;5113599;28;20051;-75
2021/08/26 03:34:56;;;;;;;19.52;8.95;;;;;;;11.98;77.97;99815.81;5114048;28;20052;-75
2021/08/26 03:37:24;;;;;;;19.48;9.50;;;;;;;11.95;78.40;99821.34;5113441;28;20048;-75
2021/08/26 03:39:52;;;;;;;17.08;8.95;;;;;;;11.92;78.65;99818.91;5113522;28;20054;-75
2021/08/26 03:42:21;;;;;;;18.25;9.15;;;;;;;11.94;78.31;99818.78;5113413;28;20071;-74
2021/08/26 03:44:53;;;;;;;17.92;8.90;;;;;;;11.93;78.96;99809.91;5113467;28;20040;-72
2021/08/26 03:47:21;;;;;;;19.15;9.88;;;;;;;11.93;78.98;99823.28;5113356;28;20051;-70
2021/08/26 03:49:49;;;;;;;19.48;9.90;;;;;;;11.97;78.95;99813.25;5113815;28;20092;-70
2021/08/26 03:52:18;;;;;;;21.50;10.40;;;;;;;11.95;79.00;99816.00;5112312;28;20104;-70
2021/08/26 03:54:46;;;;;;;19.77;9.75;;;;;;;11.93;79.06;99814.41;5113700;28;20067;-69
2021/08/26 03:57:16;;;;;;;17.52;8.93;;;;;;;11.91;79.41;99819.88;5094922;28;20513;-75
2021/08/26 03:59:45;;;;;;;18.00;9.82;;;;;;;11.99;78.44;99822.00;5113599;28;20050;-70
2021/08/26 04:02:14;;;;;;;18.83;10.13;;;;;;;11.95;78.91;99821.34;5113312;28;20039;-70
2021/08/26 04:04:43;;;;;;;20.15;10.05;;;;;;;11.95;78.91;99810.66;5113196;28;20552;-70
2021/08/26 04:07:11;;;;;;;20.98;10.30;;;;;;;11.94;79.10;99808.09;5113370;28;20043;-71
2021/08/26 04:09:39;;;;;;;20.98;10.68;;;;;;;11.97;78.74;99807.91;5112909;28;20050;-72
2021/08/26 04:12:07;;;;;;;22.38;10.20;;;;;;;12.02;77.97;99801.22;5113236;28;20101;-72
2021/08/26 04:14:36;;;;;;;23.77;10.90;;;;;;;12.10;78.44;99798.00;5113123;28;20055;-73
2021/08/26 04:17:08;;;;;;;19.73;10.00;;;;;;;12.34;77.99;99792.66;5113309;28;20043;-72
2021/08/26 04:19:40;;;;;;;18.63;9.52;;;;;;;12.54;76.80;99792.00;5112930;28;20047;-72
2021/08/26 04:22:09;;;;;;;21.25;10.00;;;;;;;12.63;76.64;99795.81;5113264;28;20051;-72
2021/08/26 04:24:37;;;;;;;18.63;9.77;;;;;;;12.46;76.83;99789.06;5113197;28;20118;-72
2021/08/26 04:27:05;;;;;;;21.25;11.02;;;;;;;12.77;75.28;99782.25;5113268;28;20039;-72
2021/08/26 04:29:33;;;;;;;19.67;10.10;;;;;;;12.59;76.07;99786.31;5112806;28;20077;-72
2021/08/26 04:32:02;;;;;;;19.85;10.10;;;;;;;12.81;75.12;99783.69;5113443;28;20036;-72
2021/08/26 04:34:30;;;;;;;18.65;10.32;;;;;;;13.26;72.56;99782.97;5112710;28;20046;-71
2021/08/26 04:37:00;;;;;;;21.27;11.00;;;;;;;13.21;73.04;99787.81;5113066;28;20148;-72
2021/08/26 04:39:28;;;;;;;22.75;11.20;;;;;;;13.06;73.39;99788.03;5112652;28;20047;-72
2021/08/26 04:41:56;;;;;;;21.05;10.75;;;;;;;12.92;73.42;99788.22;5113139;28;20031;-72
2021/08/26 04:44:24;;;;;;;20.17;11.75;;;;;;;12.86;74.35;99786.88;5112726;28;20074;-72
2021/08/26 04:46:52;;;;;;;19.45;11.32;;;;;;;12.99;72.68;99777.91;5112949;28;20044;-71
2021/08/26 04:49:23;;;;;;;21.23;10.90;;;;;;;13.08;72.15;99788.75;5112537;28;20043;-71
2021/08/26 04:51:51;;;;;;;24.08;10.45;;;;;;;13.37;71.09;99780.28;5113089;28;20438;-71
2021/08/26 04:54:21;;;;;;;22.27;11.18;;;;;;;13.57;70.28;99781.38;5112855;28;20043;-73
2021/08/26 04:56:49;;;;;;;19.52;11.23;;;;;;;13.77;69.18;99780.63;5112666;28;20051;-73
2021/08/26 04:59:17;;;;;;;22.80;11.55;;;;;;;13.87;68.77;99778.06;5112684;28;20047;-71
2021/08/26 05:01:46;;;;;;;20.27;10.35;;;;;;;13.95;68.39;99768.41;5112908;28;20043;-71
2021/08/26 05:04:22;;;;;;;20.70;11.40;;;;;;;13.96;68.60;99769.25;5115139;28;20074;-70
2021/08/26 05:06:51;;;;;;;21.30;10.57;;;;;;;13.90;68.79;99767.09;5098376;28;20051;-70
2021/08/26 05:09:21;;;;;;;24.45;11.40;;;;;;;13.91;68.88;99774.16;5116779;28;20407;-78
2021/08/26 05:11:49;;;;;;;18.42;10.15;;;;;;;13.90;69.06;99764.41;5116583;28;20456;-71
2021/08/26 05:14:18;;;;;;;22.60;11.50;;;;;;;14.03;68.63;99768.63;5116473;28;20051;-70
2021/08/26 05:16:46;;;;;;;23.13;10.70;;;;;;;14.08;68.95;99768.25;5116586;28;20109;-70
2021/08/26 05:19:14;;;;;;;25.23;10.93;;;;;;;14.09;68.96;99767.28;5116392;28;20399;-74
2021/08/26 05:21:42;;;;;;;22.58;11.48;;;;;;;14.09;68.97;99767.28;5116099;28;20097;-70
2021/08/26 05:24:10;;;;;;;23.80;11.02;;;;;;;14.13;68.91;99759.84;5115656;28;20044;-70
2021/08/26 05:26:45;;;;;;;21.37;11.10;;;;;;;14.17;68.82;99754.06;5115352;28;20067;-69
2021/08/26 05:29:13;;;;;;;18.20;10.65;;;;;;;14.30;69.10;99751.25;5115629;28;20272;-70
2021/08/26 05:31:41;;;;;;;24.52;12.13;;;;;;;14.49;68.82;99742.53;5115540;28;20040;-69
2021/08/26 05:34:09;;;;;;;22.77;11.57;;;;;;;14.80;67.63;99749.69;5115622;28;20043;-71
2021/08/26 05:36:37;;;;;;;22.42;11.43;;;;;;;15.03;66.56;99746.84;5112716;28;20047;-72
2021/08/26 05:39:05;;;;;;;22.38;11.30;;;;;;;15.11;66.51;99742.50;5115652;28;20059;-72
2021/08/26 05:41:34;;;;;;;22.23;11.90;;;;;;;15.24;65.49;99742.28;5115339;28;20137;-71
2021/08/26 05:44:04;;;;;;;21.15;12.25;;;;;;;15.52;64.57;99738.00;5116016;28;20035;-73
2021/08/26 05:46:32;;;;;;;21.00;10.93;;;;;;;16.00;63.40;99737.31;5115879;28;20047;-72
2021/08/26 05:49:00;;;;;;;21.80;10.73;;;;;;;16.60;61.19;99736.22;5115680;28;20047;-72
2021/08/26 05:51:29;;;;;;;20.65;11.18;;;;;;;16.85;60.09;99737.47;5115962;28;20040;-72
2021/08/26 05:53:57;;;;;;;22.95;10.57;;;;;;;16.84;59.58;99737.63;5115828;28;20044;-73
2021/08/26 05:56:26;;;;;;;22.58;11.60;;;;;;;16.87;59.70;99737.34;5097371;28;20089;-76
2021/08/26 05:58:55;;;;;;;23.67;11.80;;;;;;;16.88;59.97;99744.41;5112015;28;20043;-75
2021/08/26 06:01:27;;;;;;;23.00;12.50;;;;;;;17.00;59.75;99742.44;5115836;28;20047;-75
2021/08/26 06:03:57;;;;;;;22.85;11.88;;;;;;;17.54;57.72;99747.03;5113289;28;20042;-71
2021/08/26 06:06:25;;;;;;;19.27;11.27;;;;;;;18.14;56.70;99742.03;5114701;28;21160;-72
2021/08/26 06:08:53;;;;;;;20.85;11.63;;;;;;;18.41;54.92;99748.38;5113013;28;20480;-70
2021/08/26 06:11:21;;;;;;;19.48;9.75;;;;;;;19.08;53.74;99749.63;5115031;28;20048;-70
2021/08/26 06:13:49;;;;;;;22.27;8.85;;;;;;;19.51;52.09;99747.84;5114940;28;20048;-71
2021/08/26 06:16:18;;;;;;;20.30;8.95;;;;;;;19.64;50.59;99745.56;5094047;28;20500;-71
2021/08/26 06:18:47;;;;;;;19.60;7.68;;;;;;;19.96;50.56;99747.53;5114569;28;20043;-72
2021/08/26 06:21:16;;;;;;;19.00;8.98;;;;;;;20.60;48.40;99747.84;5114969;28;20418;-72
2021/08/26 06:23:45;;;;;;;18.08;8.35;;;;;;;20.81;48.39;99740.06;5111973;28;20336;-73
2021/08/26 06:26:13;;;;;;;17.25;8.70;;;;;;;20.93;48.00;99748.69;5114626;28;20036;-69
2021/08/26 06:28:41;;;;;;;15.40;7.72;;;;;;;21.04;48.00;99743.78;5114676;28;20046;-71
2021/08/26 06:31:09;;;;;;;18.08;8.70;;;;;;;21.11;47.28;99739.34;5115082;28;20036;-72
2021/08/26 06:33:37;;;;;;;13.38;8.07;;;;;;;21.44;46.03;99750.16;5114587;28;20043;-70
2021/08/26 06:36:07;;;;;;;21.10;9.10;;;;;;;21.78;45.57;99751.72;5114990;28;20503;-71
2021/08/26 06:38:36;;;;;;;18.67;9.27;;;;;;;21.94;45.11;99749.78;5115018;28;20051;-71
2021/08/26 06:41:04;;;;;;;19.27;9.15;;;;;;;21.67;45.26;99742.94;5114514;28;20112;-69
2021/08/26 06:43:32;;;;;;;17.20;8.63;;;;;;;21.71;45.42;99738.88;5114435;28;20052;-70
2021/08/26 06:46:01;;;;;;;13.93;8.20;;;;;;;21.39;46.29;99744.41;5114477;28;20047;-71
2021/08/26 06:48:29;;;;;;;14.68;7.20;;;;;;;21.21;46.76;99741.88;5114292;28;20043;-69
2021/08/26 06:50:57;;;;;;;13.07;6.50;;;;;;;21.15;47.00;99748.84;5114652;28;20043;-70
2021/08/26 06:53:27;;;;;;;11.80;6.50;;;;;;;21.03;46.53;99746.63;5114770;28;20044;-70
2021/08/26 06:56:02;;;;;;;13.75;6.03;;;;;;;21.08;45.93;99742.41;5114618;28;20040;-67
2021/08/26 06:58:31;;;;;;;10.77;5.60;;;;;;;21.15;46.18;99743.41;5113871;28;20082;-69
2021/08/26 07:00:59;;;;;;;13.70;6.00;;;;;;;20.36;47.28;99740.50;5096106;28;20047;-68
2021/08/26 07:03:27;;;;;;;10.95;5.18;;;;;;;20.22;48.49;99739.31;5114569;28;20050;-70
2021/08/26 07:05:56;;;;;;;10.02;5.88;;;;;;;19.94;48.53;99736.88;5114701;28;20108;-70
2021/08/26 07:08:24;;;;;;;10.20;5.70;;;;;;;19.87;49.12;99740.41;5114460;28;20040;-70
2021/08/26 07:10:53;;;;;;;13.45;5.80;;;;;;;19.88;49.46;99734.84;5114077;28;20040;-70
2021/08/26 07:13:22;;;;;;;10.30;5.43;;;;;;;19.91;50.02;99734.50;5114245;28;20096;-69
2021/08/26 07:15:50;;;;;;;10.32;5.32;;;;;;;20.17;48.30;99733.53;5114174;28;20039;-69
2021/08/26 07:18:20;;;;;;;12.70;5.30;;;;;;;20.05;48.93;99743.00;5114360;28;20040;-69
2021/08/26 07:20:48;;;;;;;10.52;5.13;;;;;;;20.01;49.71;99731.66;5113945;28;20496;-69
2021/08/26 07:23:16;;;;;;;10.27;5.25;;;;;;;20.02;49.82;99734.19;5095811;28;20052;-69
2021/08/26 07:25:45;;;;;;;12.45;5.38;;;;;;;20.16;48.89;99731.84;5113841;28;20078;-69
2021/08/26 07:28:15;;;;;;;10.43;5.22;;;;;;;20.19;49.24;99728.81;5114171;28;20044;-69
2021/08/26 07:30:43;;;;;;;11.63;5.72;;;;;;;20.34;48.67;99724.44;5114039;28;20396;-69
2021/08/26 07:33:11;;;;;;;12.65;5.38;;;;;;;20.48;49.13;99725.69;5113835;28;20043;-69
2021/08/26 07:35:39;;;;;;;10.15;4.53;;;;;;;20.63;47.53;99723.13;5113530;28;20043;-69
2021/08/26 07:38:07;;;;;;;10.77;4.65;;;;;;;20.75;46.80;99716.34;5114023;28;20050;-69
2021/08/26 07:40:36;;;;;;;10.20;4.97;;;;;;;20.61;46.71;99719.75;5113484;28;20055;-69
2021/08/26 07:43:05;;;;;;;8.75;4.53;;;;;;;20.38;47.81;99716.84;5113893;28;20036;-69
2021/08/26 07:45:34;;;;;;;8.38;4.47;;;;;;;20.22;47.67;99712.25;5113489;28;20050;-68
2021/08/26 07:48:03;;;;;;;11.10;4.78;;;;;;;20.21;48.49;99714.09;5113632;28;20050;-68
2021/08/26 07:50:31;;;;;;;11.23;4.60;;;;;;;20.25;48.29;99720.03;5113642;28;20097;-78
2021/08/26 07:52:59;;;;;;;9.98;4.57;;;;;;;20.37;48.38;99718.69;5113546;28;20197;-68
2021/08/26 07:55:28;;;;;;;10.02;4.90;;;;;;;20.72;48.76;99711.25;5113935;28;20396;-69
2021/08/26 07:57:56;;;;;;;9.63;4.32;;;;;;;20.95;46.52;99708.72;5113409;28;20092;-70
2021/08/26 08:00:25;;;;;;;8.73;4.25;;;;;;;20.95;45.93;99709.56;5113552;28;20043;-70
2021/08/26 08:02:54;;;;;;;10.32;4.32;;;;;;;21.07;46.17;99704.63;5113342;28;20050;-70
2021/08/26 08:05:23;;;;;;;8.85;4.38;;;;;;;21.12;45.70;99705.78;5113468;28;20063;-70
2021/08/26 08:07:53;;;;;;;8.43;4.35;;;;;;;21.28;45.54;99715.78;5113513;28;20527;-70
2021/08/26 08:10:22;;;;;;;8.05;4.25;;;;;;;21.21;44.69;99708.47;5113322;28;20118;-70
2021/08/26 08:12:50;;;;;;;10.75;4.50;;;;;;;21.40;44.72;99708.94;5113232;28;20079;-70
2021/08/26 08:15:18;;;;;;;7.22;4.00;;;;;;;21.53;44.78;99708.41;5095490;28;20064;-70
2021/08/26 08:17:49;;;;;;;8.18;4.70;;;;;;;21.58;44.32;99708.72;5113115;28;20126;-70
2021/08/26 08:20:19;;;;;;;9.38;4.30;;;;;;;21.68;44.49;99701.19;5113657;28;20047;-69
2021/08/26 08:22:48;;;;;;;8.60;4.28;;;;;;;21.76;44.11;99702.19;5113424;28;20048;-71
2021/08/26 08:25:16;;;;;;;8.52;4.40;;;;;;;21.68;44.52;99703.91;5113432;28;20044;-70
2021/08/26 08:27:45;;;;;;;8.57;4.10;;;;;;;21.85;44.63;99703.84;5113372;28;20154;-71
2021/08/26 08:30:13;;;;;;;8.30;4.13;;;;;;;21.86;44.31;99702.81;5113174;28;20035;-71
2021/08/26 08:32:41;;;;;;;6.78;3.75;;;;;;;21.83;44.34;99703.19;5112854;28;20044;-71
2021/08/26 08:35:10;;;;;;;8.70;3.95;;;;;;;21.63;44.04;99695.47;5113511;28;20043;-70
2021/08/26 08:37:39;;;;;;;7.63;3.85;;;;;;;21.34;44.75;99703.41;5112917;28;20043;-71
2021/08/26 08:40:08;;;;;;;11.50;4.18;;;;;;;21.18;44.23;99706.13;5116760;28;20393;-70
2021/08/26 08:42:38;;;;;;;9.95;4.03;;;;;;;21.15;45.03;99708.16;5116993;28;20438;-70
2021/08/26 08:45:07;;;;;;;8.25;4.30;;;;;;;21.29;44.89;99712.03;5117096;28;20035;-70
2021/08/26 08:47:37;;;;;;;9.52;4.30;;;;;;;21.59;44.74;99702.25;5116811;28;20054;-71
2021/08/26 08:50:07;;;;;;;10.45;4.35;;;;;;;21.63;44.05;99702.78;5117295;28;20040;-70
2021/08/26 08:52:41;;;;;;;9.52;4.18;;;;;;;21.70;44.18;99699.16;5116890;28;20039;-74
2021/08/26 08:55:12;;;;;;;9.60;4.00;;;;;;;21.64;44.25;99694.44;5117020;28;20039;-71
2021/08/26 08:57:43;;;;;;;10.45;4.85;;;;;;;21.74;44.39;99694.25;5116910;28;20499;-70
2021/08/26 09:00:14;;;;;;;8.55;4.63;;;;;;;21.88;43.71;99692.63;5117270;28;20071;-70
2021/08/26 09:02:45;;;;;;;7.57;4.43;;;;;;;21.89;43.37;99686.16;5116880;28;20040;-71
2021/08/26 09:05:13;;;;;;;7.72;3.63;;;;;;;21.96;43.43;99682.56;5116914;28;20046;-70
2021/08/26 09:07:43;;;;;;;9.75;4.47;;;;;;;21.91;42.79;99678.72;5116378;28;20070;-70
2021/08/26 09:10:12;;;;;;;10.45;4.25;;;;;;;22.12;42.34;99678.94;5116893;28;20051;-70
2021/08/26 09:12:52;;;;;;;8.80;4.63;;;;;;;22.60;42.15;99674.13;5116738;28;20046;-71
2021/08/26 09:15:23;;;;;;;7.53;3.92;;;;;;;22.84;41.89;99676.66;5116731;28;20036;-70
2021/08/26 09:18:11;;;;;;;6.30;3.55;;;;;;;22.94;40.81;99670.09;5116159;28;20119;-71
2021/08/26 09:20:49;;;;;;;8.40;4.10;;;;;;;23.19;40.30;99666.09;5116497;28;20577;-71
2021/08/26 09:23:20;;;;;;;10.02;3.83;;;;;;;23.01;41.11;99665.59;5116602;28;20036;-70
2021/08/26 09:25:48;;;;;;;10.27;4.50;;;;;;;23.16;40.54;99661.00;5116274;28;20089;-71
2021/08/26 09:28:27;;;;;;;7.50;4.18;;;;;;;22.81;40.37;99674.28;5116155;28;20066;-70
2021/08/26 09:31:10;;;;;;;9.73;4.60;;;;;;;22.71;40.54;99670.97;5115979;28;20073;-70
2021/08/26 09:33:50;;;;;;;10.13;4.60;;;;;;;22.89;40.73;99673.38;5116216;28;20168;-74
2021/08/26 09:36:20;;;;;;;8.73;4.40;;;;;;;22.60;41.76;99666.00;5116219;28;20400;-71
2021/08/26 09:38:57;;;;;;;7.28;3.72;;;;;;;22.56;41.43;99673.66;5115854;28;20044;-70
2021/08/26 09:41:41;;;;;;;8.20;3.97;;;;;;;22.51;41.56;99673.38;5116517;28;20446;-70
2021/08/26 09:44:12;;;;;;;7.07;4.07;;;;;;;22.62;41.11;99672.06;5116043;28;20484;-71
2021/08/26 09:46:40;;;;;;;7.55;3.58;;;;;;;22.55;40.47;99668.41;5115653;28;20427;-72
2021/08/26 09:49:10;;;;;;;7.22;3.25;;;;;;;22.40;40.83;99662.09;5115554;28;20036;-70
2021/08/26 09:51:39;;;;;;;8.63;3.80;;;;;;;22.60;40.36;99676.03;5114833;28;20057;-70
2021/08/26 09:54:31;;;;;;;8.38;4.00;;;;;;;22.65;40.10;99671.69;5097858;28;20047;-71
2021/08/26 09:56:59;;;;;;;8.25;3.95;;;;;;;22.55;40.30;99671.97;5115899;28;20071;-70
2021/08/26 09:59:48;;;;;;;9.32;3.85;;;;;;;22.69;40.05;99675.75;5115842;28;20047;-70
2021/08/26 10:02:17;;;;;;;6.78;3.65;;;;;;;22.56;40.09;99667.38;5097854;28;20064;-70
2021/08/26 10:04:47;;;;;;;6.88;3.63;;;;;;;22.72;40.49;99661.78;5097351;28;20039;-71
2021/08/26 10:07:16;;;;;;;8.38;4.47;;;;;;;22.74;39.21;99667.03;5115775;28;20093;-71
2021/08/26 10:09:46;;;;;;;7.65;3.78;;;;;;;22.92;39.51;99661.28;5115274;28;20096;-70
2021/08/26 10:12:16;;;;;;;10.10;4.43;;;;;;;23.03;39.20;99666.25;5097485;28;20067;-71
2021/08/26 10:14:46;;;;;;;6.45;3.63;;;;;;;23.11;39.18;99656.13;5115453;28;20036;-71
2021/08/26 10:17:15;;;;;;;9.45;3.70;;;;;;;23.04;38.63;99644.31;5115298;28;20051;-70
2021/08/26 10:19:44;;;;;;;9.02;4.18;;;;;;;23.09;38.01;99646.47;5115059;28;20043;-71
2021/08/26 10:22:13;;;;;;;8.02;4.00;;;;;;;23.29;37.82;99644.88;5115278;28;20119;-70
2021/08/26 10:24:41;;;;;;;7.75;3.22;;;;;;;23.34;37.39;99650.59;5115037;28;20086;-78
2021/08/26 10:27:15;;;;;;;9.60;3.67;;;;;;;23.08;38.18;99661.13;5115518;28;20434;-71
2021/08/26 10:29:45;;;;;;;8.35;3.80;;;;;;;23.36;37.78;99640.38;5114918;28;20043;-71
2021/08/26 10:32:17;;;;;;;6.72;3.80;;;;;;;23.47;37.48;99644.50;5115115;28;20040;-70
2021/08/26 10:35:07;;;;;;;8.70;3.87;;;;;;;23.67;37.21;99633.88;5114930;28;20039;-71
2021/08/26 10:37:49;;;;;;;8.38;3.97;;;;;;;23.37;37.55;99639.34;5115344;28;20272;-71
2021/08/26 10:40:36;;;;;;;5.85;3.42;;;;;;;23.26;37.67;99648.00;5114811;28;20056;-71
2021/08/26 10:43:07;;;;;;;7.28;3.60;;;;;;;23.77;37.55;99645.31;5114696;28;20061;-71
2021/08/26 10:45:48;;;;;;;9.75;4.28;;;;;;;23.43;36.56;99638.56;5114935;28;20051;-71
2021/08/26 10:48:21;;;;;;;7.22;3.40;;;;;;;23.47;36.63;99635.47;5114942;28;20043;-71
2021/08/26 10:51:07;;;;;;;7.43;4.00;;;;;;;23.20;37.03;99643.28;5114706;28;20044;-71
2021/08/26 10:53:37;;;;;;;6.93;3.83;;;;;;;23.32;37.04;99641.78;5115172;28;20123;-71
2021/08/26 10:56:25;;;;;;;9.20;3.95;;;;;;;23.32;37.39;99641.78;5114264;28;20050;-71
2021/08/26 10:58:56;;;;;;;7.97;3.78;;;;;;;23.22;37.04;99643.09;5114728;28;20047;-71
2021/08/26 11:01:42;;;;;;;11.18;3.90;;;;;;;23.05;36.82;99639.72;5113977;28;20040;-71
2021/08/26 11:04:20;;;;;;;7.70;4.00;;;;;;;23.12;36.85;99643.38;5114670;28;20047;-71
2021/08/26 11:06:49;;;;;;;7.43;3.42;;;;;;;22.93;36.75;99657.53;5114527;28;20067;-71
2021/08/26 11:09:28;;;;;;;6.80;3.75;;;;;;;22.95;37.04;99644.59;5114236;28;20036;-71
2021/08/26 11:12:04;;;;;;;9.77;3.80;;;;;;;23.10;37.54;99643.56;5114230;28;20040;-71
2021/08/26 11:14:39;;;;;;;8.65;3.60;;;;;;;23.13;37.27;99636.91;5114307;28;20523;-70
2021/08/26 11:17:23;;;;;;;6.68;3.67;;;;;;;23.23;37.33;99640.19;5113948;28;20054;-71
2021/08/26 11:19:51;;;;;;;5.97;2.95;;;;;;;23.22;37.82;99634.94;5113729;28;20047;-71
2021/08/26 11:22:19;;;;;;;7.35;3.40;;;;;;;23.35;36.93;99646.81;5114146;28;20408;-71
2021/08/26 11:25:06;;;;;;;8.38;3.30;;;;;;;23.37;36.72;99650.22;5114038;28;20135;-71
2021/08/26 11:27:36;;;;;;;9.00;3.70;;;;;;;23.47;36.58;99649.09;5114028;28;20067;-71
2021/08/26 11:30:24;;;;;;;7.55;3.42;;;;;;;23.30;36.73;99632.97;5113573;28;20047;-71
2021/08/26 11:32:53;;;;;;;7.95;3.63;;;;;;;23.49;35.96;99633.41;5113791;28;20459;-71
2021/08/26 11:35:21;;;;;;;6.00;3.30;;;;;;;23.36;35.59;99643.09;5113912;28;20055;-71
2021/08/26 11:37:54;;;;;;;6.93;3.55;;;;;;;23.53;36.31;99632.81;5113466;28;20105;-71
2021/08/26 11:40:22;;;;;;;6.93;3.67;;;;;;;23.44;34.68;99631.25;5113923;28;20413;-71
2021/08/26 11:42:51;;;;;;;7.85;3.92;;;;;;;23.73;35.51;99638.53;5113525;28;20039;-71
2021/08/26 11:45:25;;;;;;;6.68;3.72;;;;;;;23.78;35.14;99633.38;5113964;28;20113;-71